Greenbrier, Tennessee
Current Conditions -  °F | °C
As of 8:15 PM on Saturday 22 Nov 2014 (Local Time) from KM91 Reporting Station
Overcast Overcast  
Wind Chill: 14°   Ceiling: 9000
Heat Index: 14°   Visibility: 10mi
Dew Point:   Wind: 12mph
Humidity: 59%   Direction: 190°S
Pressure: 30.09"   Gusts: NA
Location:  36.43°N, 86.8°W
Report Text: KM91 230215Z AUTO 19010KT 10SM OVC090 14/06 A3009 RMK
Loading
Personal Weather Stations






























Interactive Weather Map New forecast layout! Learn more

10-Day Weather Forecast

Advertisements
Track Severe Weather on mobile